Terminal Aerodrome Forecast
Issued by NWS

Home | Current Version | Previous Version | Text Only | Print | Product List | Glossary On
Versions: 1 2 3 4 5 6 7 8 9 10 11 12 13 14 15 16
000
FTAK31 PAJN 231724
TAFAJN
TAF
PAJN 231724Z 2318/2418 11010KT P6SM -RA FEW008 BKN035 OVC060
     FM232200 10006KT P6SM VCSH BKN025 OVC050
     FM240300 11012KT P6SM VCSH OVC035
     FM241200 09008KT 4SM -SN BR SCT025 OVC035 WS020/15040KT
     FM241500 10010KT 2SM -RASN OVC025=

USA.gov is the U.S. government's official web portal to all federal, state and local government web resources and services.